sensor_id;sensor_type;location;lat;lon;timestamp;P1;durP1;ratioP1;P2;durP2;ratioP2
65477;SDS011;53678;39.642;22.430;2023-04-25T00:00:28;9.45;;;4.57;;
65477;SDS011;53678;39.642;22.430;2023-04-25T00:02:54;7.10;;;3.80;;
65477;SDS011;53678;39.642;22.430;2023-04-25T00:05:25;4.65;;;3.28;;
65477;SDS011;53678;39.642;22.430;2023-04-25T00:07:53;6.72;;;3.90;;
65477;SDS011;53678;39.642;22.430;2023-04-25T00:10:24;6.32;;;3.25;;
65477;SDS011;53678;39.642;22.430;2023-04-25T00:12:51;7.38;;;3.50;;
65477;SDS011;53678;39.642;22.430;2023-04-25T00:15:20;5.25;;;3.72;;
65477;SDS011;53678;39.642;22.430;2023-04-25T00:17:48;5.70;;;3.45;;
65477;SDS011;53678;39.642;22.430;2023-04-25T00:20:14;8.13;;;3.58;;
65477;SDS011;53678;39.642;22.430;2023-04-25T00:22:41;5.90;;;3.40;;
65477;SDS011;53678;39.642;22.430;2023-04-25T00:25:13;6.03;;;3.80;;
65477;SDS011;53678;39.642;22.430;2023-04-25T00:27:39;5.05;;;3.47;;
65477;SDS011;53678;39.642;22.430;2023-04-25T00:30:07;4.20;;;3.13;;
65477;SDS011;53678;39.642;22.430;2023-04-25T00:32:34;6.45;;;3.80;;
65477;SDS011;53678;39.642;22.430;2023-04-25T00:35:00;8.35;;;3.55;;
65477;SDS011;53678;39.642;22.430;2023-04-25T00:37:26;5.93;;;3.22;;
65477;SDS011;53678;39.642;22.430;2023-04-25T00:39:53;6.57;;;3.72;;
65477;SDS011;53678;39.642;22.430;2023-04-25T00:42:21;9.75;;;3.80;;
65477;SDS011;53678;39.642;22.430;2023-04-25T00:44:47;11.07;;;3.95;;
65477;SDS011;53678;39.642;22.430;2023-04-25T00:47:13;6.15;;;3.63;;
65477;SDS011;53678;39.642;22.430;2023-04-25T00:49:40;9.80;;;3.80;;
65477;SDS011;53678;39.642;22.430;2023-04-25T00:52:07;5.43;;;3.40;;
65477;SDS011;53678;39.642;22.430;2023-04-25T00:54:34;4.57;;;3.40;;
65477;SDS011;53678;39.642;22.430;2023-04-25T00:57:00;7.07;;;4.10;;
65477;SDS011;53678;39.642;22.430;2023-04-25T00:59:27;7.18;;;4.18;;
65477;SDS011;53678;39.642;22.430;2023-04-25T01:01:53;6.28;;;3.63;;
65477;SDS011;53678;39.642;22.430;2023-04-25T01:04:21;6.68;;;3.67;;
65477;SDS011;53678;39.642;22.430;2023-04-25T01:06:51;6.40;;;3.42;;
65477;SDS011;53678;39.642;22.430;2023-04-25T01:09:18;7.07;;;3.88;;
65477;SDS011;53678;39.642;22.430;2023-04-25T01:11:45;6.13;;;3.83;;
65477;SDS011;53678;39.642;22.430;2023-04-25T01:14:12;5.82;;;3.50;;
65477;SDS011;53678;39.642;22.430;2023-04-25T01:16:37;5.32;;;3.70;;
65477;SDS011;53678;39.642;22.430;2023-04-25T01:19:05;6.35;;;3.47;;
65477;SDS011;53678;39.642;22.430;2023-04-25T01:21:37;7.18;;;3.38;;
65477;SDS011;53678;39.642;22.430;2023-04-25T01:24:03;5.72;;;4.20;;
65477;SDS011;53678;39.642;22.430;2023-04-25T01:26:30;4.75;;;3.80;;
65477;SDS011;53678;39.642;22.430;2023-04-25T01:28:56;5.88;;;3.70;;
65477;SDS011;53678;39.642;22.430;2023-04-25T01:31:23;5.13;;;3.63;;
65477;SDS011;53678;39.642;22.430;2023-04-25T01:33:49;4.90;;;3.50;;
65477;SDS011;53678;39.642;22.430;2023-04-25T01:36:15;8.73;;;3.90;;
65477;SDS011;53678;39.642;22.430;2023-04-25T01:38:40;6.45;;;3.80;;
65477;SDS011;53678;39.642;22.430;2023-04-25T01:41:07;6.13;;;3.70;;
65477;SDS011;53678;39.642;22.430;2023-04-25T01:43:32;6.05;;;3.30;;
65477;SDS011;53678;39.642;22.430;2023-04-25T01:45:59;5.20;;;4.00;;
65477;SDS011;53678;39.642;22.430;2023-04-25T01:48:25;6.35;;;4.03;;
65477;SDS011;53678;39.642;22.430;2023-04-25T01:50:50;7.95;;;3.58;;
65477;SDS011;53678;39.642;22.430;2023-04-25T01:53:16;5.93;;;3.90;;
65477;SDS011;53678;39.642;22.430;2023-04-25T01:55:44;7.15;;;3.78;;
65477;SDS011;53678;39.642;22.430;2023-04-25T01:58:13;5.85;;;3.97;;
65477;SDS011;53678;39.642;22.430;2023-04-25T02:00:58;6.47;;;3.78;;
65477;SDS011;53678;39.642;22.430;2023-04-25T02:03:30;5.40;;;4.40;;
65477;SDS011;53678;39.642;22.430;2023-04-25T02:05:57;5.07;;;3.70;;
65477;SDS011;53678;39.642;22.430;2023-04-25T02:08:24;6.18;;;4.22;;
65477;SDS011;53678;39.642;22.430;2023-04-25T02:10:53;7.85;;;4.03;;
65477;SDS011;53678;39.642;22.430;2023-04-25T02:13:19;6.60;;;4.28;;
65477;SDS011;53678;39.642;22.430;2023-04-25T02:16:01;6.05;;;3.90;;
65477;SDS011;53678;39.642;22.430;2023-04-25T02:18:29;6.57;;;4.18;;
65477;SDS011;53678;39.642;22.430;2023-04-25T02:20:54;10.00;;;4.85;;
65477;SDS011;53678;39.642;22.430;2023-04-25T02:23:20;10.80;;;4.50;;
65477;SDS011;53678;39.642;22.430;2023-04-25T02:25:46;11.68;;;4.30;;
65477;SDS011;53678;39.642;22.430;2023-04-25T02:28:12;8.63;;;3.53;;
65477;SDS011;53678;39.642;22.430;2023-04-25T02:30:38;10.52;;;4.22;;
65477;SDS011;53678;39.642;22.430;2023-04-25T02:33:04;9.35;;;4.80;;
65477;SDS011;53678;39.642;22.430;2023-04-25T02:35:30;6.60;;;3.95;;
65477;SDS011;53678;39.642;22.430;2023-04-25T02:37:56;7.57;;;4.28;;
65477;SDS011;53678;39.642;22.430;2023-04-25T02:40:21;9.25;;;4.38;;
65477;SDS011;53678;39.642;22.430;2023-04-25T02:42:47;8.23;;;4.10;;
65477;SDS011;53678;39.642;22.430;2023-04-25T02:45:13;8.57;;;4.20;;
65477;SDS011;53678;39.642;22.430;2023-04-25T02:47:39;14.13;;;4.20;;
65477;SDS011;53678;39.642;22.430;2023-04-25T02:50:05;9.57;;;4.70;;
65477;SDS011;53678;39.642;22.430;2023-04-25T02:52:31;10.48;;;5.20;;
65477;SDS011;53678;39.642;22.430;2023-04-25T02:55:05;8.88;;;4.10;;
65477;SDS011;53678;39.642;22.430;2023-04-25T02:57:35;6.63;;;3.95;;
65477;SDS011;53678;39.642;22.430;2023-04-25T03:00:03;8.93;;;4.20;;
65477;SDS011;53678;39.642;22.430;2023-04-25T03:02:30;6.90;;;4.28;;
65477;SDS011;53678;39.642;22.430;2023-04-25T03:04:56;11.25;;;5.50;;
65477;SDS011;53678;39.642;22.430;2023-04-25T03:07:21;11.07;;;4.72;;
65477;SDS011;53678;39.642;22.430;2023-04-25T03:09:48;12.65;;;4.93;;
65477;SDS011;53678;39.642;22.430;2023-04-25T03:12:13;17.88;;;6.22;;
65477;SDS011;53678;39.642;22.430;2023-04-25T03:14:39;11.40;;;4.75;;
65477;SDS011;53678;39.642;22.430;2023-04-25T03:17:05;12.38;;;5.20;;
65477;SDS011;53678;39.642;22.430;2023-04-25T03:19:34;12.82;;;4.80;;
65477;SDS011;53678;39.642;22.430;2023-04-25T03:21:59;12.05;;;5.28;;
65477;SDS011;53678;39.642;22.430;2023-04-25T03:24:25;9.27;;;5.20;;
65477;SDS011;53678;39.642;22.430;2023-04-25T03:26:52;10.57;;;5.03;;
65477;SDS011;53678;39.642;22.430;2023-04-25T03:29:18;9.95;;;5.10;;
65477;SDS011;53678;39.642;22.430;2023-04-25T03:31:45;9.60;;;5.78;;
65477;SDS011;53678;39.642;22.430;2023-04-25T03:34:11;11.85;;;5.40;;
65477;SDS011;53678;39.642;22.430;2023-04-25T03:36:40;13.95;;;4.65;;
65477;SDS011;53678;39.642;22.430;2023-04-25T03:39:06;9.57;;;4.30;;
65477;SDS011;53678;39.642;22.430;2023-04-25T03:41:32;9.80;;;4.60;;
65477;SDS011;53678;39.642;22.430;2023-04-25T03:44:03;13.35;;;4.40;;
65477;SDS011;53678;39.642;22.430;2023-04-25T03:46:31;7.18;;;4.15;;
65477;SDS011;53678;39.642;22.430;2023-04-25T03:48:58;6.70;;;4.95;;
65477;SDS011;53678;39.642;22.430;2023-04-25T03:51:34;8.40;;;3.92;;
65477;SDS011;53678;39.642;22.430;2023-04-25T03:54:01;6.13;;;3.90;;
65477;SDS011;53678;39.642;22.430;2023-04-25T03:56:30;12.32;;;4.53;;
65477;SDS011;53678;39.642;22.430;2023-04-25T03:59:08;16.00;;;4.90;;
65477;SDS011;53678;39.642;22.430;2023-04-25T04:01:34;15.75;;;5.13;;
65477;SDS011;53678;39.642;22.430;2023-04-25T04:04:01;7.88;;;4.03;;
65477;SDS011;53678;39.642;22.430;2023-04-25T04:06:29;6.90;;;4.20;;
65477;SDS011;53678;39.642;22.430;2023-04-25T04:09:04;5.80;;;4.05;;
65477;SDS011;53678;39.642;22.430;2023-04-25T04:11:37;11.27;;;4.57;;
65477;SDS011;53678;39.642;22.430;2023-04-25T04:14:07;19.55;;;5.00;;
65477;SDS011;53678;39.642;22.430;2023-04-25T04:16:35;9.20;;;4.68;;
65477;SDS011;53678;39.642;22.430;2023-04-25T04:19:02;7.97;;;4.30;;
65477;SDS011;53678;39.642;22.430;2023-04-25T04:21:28;9.02;;;4.68;;
65477;SDS011;53678;39.642;22.430;2023-04-25T04:23:54;10.45;;;4.72;;
65477;SDS011;53678;39.642;22.430;2023-04-25T04:26:21;7.18;;;3.97;;
65477;SDS011;53678;39.642;22.430;2023-04-25T04:28:55;15.98;;;4.82;;
65477;SDS011;53678;39.642;22.430;2023-04-25T04:31:44;17.38;;;5.15;;
65477;SDS011;53678;39.642;22.430;2023-04-25T04:34:10;8.77;;;4.03;;
65477;SDS011;53678;39.642;22.430;2023-04-25T04:36:37;21.83;;;5.20;;
65477;SDS011;53678;39.642;22.430;2023-04-25T04:39:05;8.27;;;4.20;;
65477;SDS011;53678;39.642;22.430;2023-04-25T04:41:38;11.18;;;4.50;;
65477;SDS011;53678;39.642;22.430;2023-04-25T04:44:12;9.18;;;4.60;;
65477;SDS011;53678;39.642;22.430;2023-04-25T04:46:50;10.35;;;5.22;;
65477;SDS011;53678;39.642;22.430;2023-04-25T04:49:39;8.90;;;4.35;;
65477;SDS011;53678;39.642;22.430;2023-04-25T04:52:28;10.63;;;4.75;;
65477;SDS011;53678;39.642;22.430;2023-04-25T04:55:17;9.57;;;4.38;;
65477;SDS011;53678;39.642;22.430;2023-04-25T04:58:05;10.57;;;4.43;;
65477;SDS011;53678;39.642;22.430;2023-04-25T05:01:06;7.93;;;3.88;;
65477;SDS011;53678;39.642;22.430;2023-04-25T05:03:54;8.18;;;3.50;;
65477;SDS011;53678;39.642;22.430;2023-04-25T05:06:43;7.93;;;4.45;;
65477;SDS011;53678;39.642;22.430;2023-04-25T05:09:33;7.07;;;3.60;;
65477;SDS011;53678;39.642;22.430;2023-04-25T05:12:17;7.20;;;3.80;;
65477;SDS011;53678;39.642;22.430;2023-04-25T05:14:55;9.15;;;4.00;;
65477;SDS011;53678;39.642;22.430;2023-04-25T05:17:57;6.35;;;3.30;;
65477;SDS011;53678;39.642;22.430;2023-04-25T05:23:21;5.38;;;3.33;;
65477;SDS011;53678;39.642;22.430;2023-04-25T05:25:58;9.93;;;3.60;;
65477;SDS011;53678;39.642;22.430;2023-04-25T05:28:52;8.90;;;3.53;;
65477;SDS011;53678;39.642;22.430;2023-04-25T05:31:33;9.88;;;3.25;;
65477;SDS011;53678;39.642;22.430;2023-04-25T05:36:42;6.10;;;2.80;;
65477;SDS011;53678;39.642;22.430;2023-04-25T05:39:08;9.75;;;3.28;;
65477;SDS011;53678;39.642;22.430;2023-04-25T05:41:54;5.93;;;3.03;;
65477;SDS011;53678;39.642;22.430;2023-04-25T05:44:40;5.60;;;3.05;;
65477;SDS011;53678;39.642;22.430;2023-04-25T05:47:20;8.07;;;3.40;;
65477;SDS011;53678;39.642;22.430;2023-04-25T05:50:05;5.55;;;3.35;;
65477;SDS011;53678;39.642;22.430;2023-04-25T05:52:50;5.25;;;3.50;;
65477;SDS011;53678;39.642;22.430;2023-04-25T05:55:23;8.65;;;3.67;;
65477;SDS011;53678;39.642;22.430;2023-04-25T05:57:49;11.82;;;3.55;;
65477;SDS011;53678;39.642;22.430;2023-04-25T06:00:16;6.80;;;3.40;;
65477;SDS011;53678;39.642;22.430;2023-04-25T06:02:44;8.38;;;3.83;;
65477;SDS011;53678;39.642;22.430;2023-04-25T06:05:12;10.57;;;4.78;;
65477;SDS011;53678;39.642;22.430;2023-04-25T06:07:38;11.52;;;4.20;;
65477;SDS011;53678;39.642;22.430;2023-04-25T06:10:04;12.05;;;4.60;;
65477;SDS011;53678;39.642;22.430;2023-04-25T06:12:32;10.35;;;4.25;;
65477;SDS011;53678;39.642;22.430;2023-04-25T06:14:59;7.63;;;3.63;;
65477;SDS011;53678;39.642;22.430;2023-04-25T06:17:26;9.32;;;3.95;;
65477;SDS011;53678;39.642;22.430;2023-04-25T06:19:53;6.82;;;2.97;;
65477;SDS011;53678;39.642;22.430;2023-04-25T06:22:18;5.93;;;3.65;;
65477;SDS011;53678;39.642;22.430;2023-04-25T06:24:48;6.40;;;3.40;;
65477;SDS011;53678;39.642;22.430;2023-04-25T06:27:14;7.28;;;3.10;;
65477;SDS011;53678;39.642;22.430;2023-04-25T06:29:41;8.68;;;3.42;;
65477;SDS011;53678;39.642;22.430;2023-04-25T06:32:07;6.80;;;3.22;;
65477;SDS011;53678;39.642;22.430;2023-04-25T06:34:34;6.65;;;3.75;;
65477;SDS011;53678;39.642;22.430;2023-04-25T06:37:00;8.77;;;3.28;;
65477;SDS011;53678;39.642;22.430;2023-04-25T06:39:27;6.38;;;3.20;;
65477;SDS011;53678;39.642;22.430;2023-04-25T06:41:54;6.18;;;3.85;;
65477;SDS011;53678;39.642;22.430;2023-04-25T06:44:39;5.32;;;3.05;;
65477;SDS011;53678;39.642;22.430;2023-04-25T06:47:07;7.18;;;3.50;;
65477;SDS011;53678;39.642;22.430;2023-04-25T06:49:33;6.97;;;3.80;;
65477;SDS011;53678;39.642;22.430;2023-04-25T06:51:59;11.98;;;4.40;;
65477;SDS011;53678;39.642;22.430;2023-04-25T06:54:26;6.30;;;3.28;;
65477;SDS011;53678;39.642;22.430;2023-04-25T06:57:02;6.88;;;3.50;;
65477;SDS011;53678;39.642;22.430;2023-04-25T06:59:28;9.23;;;3.83;;
65477;SDS011;53678;39.642;22.430;2023-04-25T07:01:55;21.05;;;4.90;;
65477;SDS011;53678;39.642;22.430;2023-04-25T07:04:24;7.45;;;3.40;;
65477;SDS011;53678;39.642;22.430;2023-04-25T07:09:33;6.80;;;3.17;;
65477;SDS011;53678;39.642;22.430;2023-04-25T07:12:00;5.28;;;3.40;;
65477;SDS011;53678;39.642;22.430;2023-04-25T07:14:27;12.75;;;3.40;;
65477;SDS011;53678;39.642;22.430;2023-04-25T07:16:54;4.97;;;2.97;;
65477;SDS011;53678;39.642;22.430;2023-04-25T07:19:23;6.32;;;3.30;;
65477;SDS011;53678;39.642;22.430;2023-04-25T07:21:55;7.35;;;3.95;;
65477;SDS011;53678;39.642;22.430;2023-04-25T07:24:21;5.63;;;3.05;;
65477;SDS011;53678;39.642;22.430;2023-04-25T07:26:48;9.63;;;3.65;;
65477;SDS011;53678;39.642;22.430;2023-04-25T07:29:29;7.95;;;3.47;;
65477;SDS011;53678;39.642;22.430;2023-04-25T07:31:58;12.98;;;3.72;;
65477;SDS011;53678;39.642;22.430;2023-04-25T07:34:24;5.53;;;3.60;;
65477;SDS011;53678;39.642;22.430;2023-04-25T07:36:51;10.77;;;3.72;;
65477;SDS011;53678;39.642;22.430;2023-04-25T07:39:18;6.72;;;3.70;;
65477;SDS011;53678;39.642;22.430;2023-04-25T07:41:44;10.43;;;4.00;;
65477;SDS011;53678;39.642;22.430;2023-04-25T07:44:21;6.50;;;3.58;;
65477;SDS011;53678;39.642;22.430;2023-04-25T07:46:48;11.88;;;3.47;;
65477;SDS011;53678;39.642;22.430;2023-04-25T07:49:14;9.07;;;4.38;;
65477;SDS011;53678;39.642;22.430;2023-04-25T07:51:43;8.20;;;3.60;;
65477;SDS011;53678;39.642;22.430;2023-04-25T07:54:13;7.18;;;3.60;;
65477;SDS011;53678;39.642;22.430;2023-04-25T07:56:46;13.90;;;4.20;;
65477;SDS011;53678;39.642;22.430;2023-04-25T07:59:13;7.15;;;3.70;;
65477;SDS011;53678;39.642;22.430;2023-04-25T08:01:41;7.32;;;3.70;;
65477;SDS011;53678;39.642;22.430;2023-04-25T08:04:09;9.60;;;3.90;;
65477;SDS011;53678;39.642;22.430;2023-04-25T08:07:07;7.75;;;3.95;;
65477;SDS011;53678;39.642;22.430;2023-04-25T08:09:46;6.43;;;3.78;;
65477;SDS011;53678;39.642;22.430;2023-04-25T08:12:22;6.03;;;3.63;;
65477;SDS011;53678;39.642;22.430;2023-04-25T08:14:48;9.88;;;4.03;;
65477;SDS011;53678;39.642;22.430;2023-04-25T08:17:14;10.32;;;3.40;;
65477;SDS011;53678;39.642;22.430;2023-04-25T08:19:45;6.30;;;3.10;;
65477;SDS011;53678;39.642;22.430;2023-04-25T08:22:20;11.13;;;3.92;;
65477;SDS011;53678;39.642;22.430;2023-04-25T08:24:52;8.80;;;3.40;;
65477;SDS011;53678;39.642;22.430;2023-04-25T08:27:18;8.55;;;3.38;;
65477;SDS011;53678;39.642;22.430;2023-04-25T08:29:47;6.18;;;3.40;;
65477;SDS011;53678;39.642;22.430;2023-04-25T08:32:13;10.75;;;3.70;;
65477;SDS011;53678;39.642;22.430;2023-04-25T08:34:50;4.95;;;2.97;;
65477;SDS011;53678;39.642;22.430;2023-04-25T08:37:19;10.25;;;3.17;;
65477;SDS011;53678;39.642;22.430;2023-04-25T08:40:08;4.68;;;2.67;;
65477;SDS011;53678;39.642;22.430;2023-04-25T08:42:59;6.88;;;3.00;;
65477;SDS011;53678;39.642;22.430;2023-04-25T08:45:31;5.07;;;3.00;;
65477;SDS011;53678;39.642;22.430;2023-04-25T08:47:58;5.63;;;2.58;;
65477;SDS011;53678;39.642;22.430;2023-04-25T08:50:24;6.90;;;2.67;;
65477;SDS011;53678;39.642;22.430;2023-04-25T08:52:53;4.80;;;2.20;;
65477;SDS011;53678;39.642;22.430;2023-04-25T08:55:21;7.45;;;3.17;;
65477;SDS011;53678;39.642;22.430;2023-04-25T08:57:53;6.88;;;2.67;;
65477;SDS011;53678;39.642;22.430;2023-04-25T09:00:22;6.10;;;2.47;;
65477;SDS011;53678;39.642;22.430;2023-04-25T09:02:48;4.40;;;1.80;;
65477;SDS011;53678;39.642;22.430;2023-04-25T09:05:16;4.55;;;2.03;;
65477;SDS011;53678;39.642;22.430;2023-04-25T09:07:44;8.75;;;2.60;;
65477;SDS011;53678;39.642;22.430;2023-04-25T09:10:10;3.97;;;2.42;;
65477;SDS011;53678;39.642;22.430;2023-04-25T09:12:38;4.95;;;2.58;;
65477;SDS011;53678;39.642;22.430;2023-04-25T09:15:08;8.02;;;2.90;;
65477;SDS011;53678;39.642;22.430;2023-04-25T09:18:10;6.18;;;2.70;;
65477;SDS011;53678;39.642;22.430;2023-04-25T09:20:42;5.82;;;2.28;;
65477;SDS011;53678;39.642;22.430;2023-04-25T09:23:09;7.00;;;1.88;;
65477;SDS011;53678;39.642;22.430;2023-04-25T09:25:37;4.47;;;1.63;;
65477;SDS011;53678;39.642;22.430;2023-04-25T09:28:09;4.80;;;1.90;;
65477;SDS011;53678;39.642;22.430;2023-04-25T09:30:36;4.25;;;1.90;;
65477;SDS011;53678;39.642;22.430;2023-04-25T09:33:11;3.95;;;1.60;;
65477;SDS011;53678;39.642;22.430;2023-04-25T09:35:43;5.43;;;1.63;;
65477;SDS011;53678;39.642;22.430;2023-04-25T09:38:22;4.40;;;1.75;;
65477;SDS011;53678;39.642;22.430;2023-04-25T09:40:56;4.00;;;1.73;;
65477;SDS011;53678;39.642;22.430;2023-04-25T09:43:42;3.97;;;2.10;;
65477;SDS011;53678;39.642;22.430;2023-04-25T09:46:11;3.45;;;1.73;;
65477;SDS011;53678;39.642;22.430;2023-04-25T09:48:49;3.55;;;1.60;;
65477;SDS011;53678;39.642;22.430;2023-04-25T09:51:20;5.90;;;1.60;;
65477;SDS011;53678;39.642;22.430;2023-04-25T09:53:51;6.82;;;1.98;;
65477;SDS011;53678;39.642;22.430;2023-04-25T09:56:25;6.82;;;2.05;;
65477;SDS011;53678;39.642;22.430;2023-04-25T09:58:57;4.85;;;1.80;;
65477;SDS011;53678;39.642;22.430;2023-04-25T10:01:23;3.30;;;1.80;;
65477;SDS011;53678;39.642;22.430;2023-04-25T10:04:03;4.80;;;2.03;;
65477;SDS011;53678;39.642;22.430;2023-04-25T10:06:50;4.00;;;1.80;;
65477;SDS011;53678;39.642;22.430;2023-04-25T10:09:19;5.20;;;2.20;;
65477;SDS011;53678;39.642;22.430;2023-04-25T10:11:48;5.70;;;2.03;;
65477;SDS011;53678;39.642;22.430;2023-04-25T10:14:14;6.38;;;2.40;;
65477;SDS011;53678;39.642;22.430;2023-04-25T10:16:43;4.80;;;1.60;;
65477;SDS011;53678;39.642;22.430;2023-04-25T10:19:09;2.75;;;1.52;;
65477;SDS011;53678;39.642;22.430;2023-04-25T10:21:37;4.20;;;1.52;;
65477;SDS011;53678;39.642;22.430;2023-04-25T10:24:30;3.70;;;1.52;;
65477;SDS011;53678;39.642;22.430;2023-04-25T10:26:58;7.15;;;2.00;;
65477;SDS011;53678;39.642;22.430;2023-04-25T10:29:25;7.13;;;2.15;;
65477;SDS011;53678;39.642;22.430;2023-04-25T10:31:51;7.88;;;2.10;;
65477;SDS011;53678;39.642;22.430;2023-04-25T10:34:17;4.35;;;2.08;;
65477;SDS011;53678;39.642;22.430;2023-04-25T10:36:50;5.57;;;2.83;;
65477;SDS011;53678;39.642;22.430;2023-04-25T10:39:24;3.95;;;1.83;;
65477;SDS011;53678;39.642;22.430;2023-04-25T10:41:53;5.90;;;2.10;;
65477;SDS011;53678;39.642;22.430;2023-04-25T10:44:27;6.05;;;1.90;;
65477;SDS011;53678;39.642;22.430;2023-04-25T10:46:55;8.18;;;2.25;;
65477;SDS011;53678;39.642;22.430;2023-04-25T10:49:36;3.90;;;2.22;;
65477;SDS011;53678;39.642;22.430;2023-04-25T10:54:48;6.07;;;2.03;;
65477;SDS011;53678;39.642;22.430;2023-04-25T10:57:27;7.70;;;2.35;;
65477;SDS011;53678;39.642;22.430;2023-04-25T11:00:10;6.93;;;2.95;;
65477;SDS011;53678;39.642;22.430;2023-04-25T11:02:48;6.82;;;2.55;;
65477;SDS011;53678;39.642;22.430;2023-04-25T11:05:23;5.68;;;2.45;;
65477;SDS011;53678;39.642;22.430;2023-04-25T11:07:55;6.68;;;2.70;;
65477;SDS011;53678;39.642;22.430;2023-04-25T11:10:31;5.88;;;1.92;;
65477;SDS011;53678;39.642;22.430;2023-04-25T11:13:00;9.68;;;2.60;;
65477;SDS011;53678;39.642;22.430;2023-04-25T11:15:26;3.65;;;1.40;;
65477;SDS011;53678;39.642;22.430;2023-04-25T11:17:55;4.10;;;1.73;;
65477;SDS011;53678;39.642;22.430;2023-04-25T11:20:21;5.47;;;1.80;;
65477;SDS011;53678;39.642;22.430;2023-04-25T11:22:47;5.25;;;1.80;;
65477;SDS011;53678;39.642;22.430;2023-04-25T11:25:14;6.13;;;1.95;;
65477;SDS011;53678;39.642;22.430;2023-04-25T11:27:54;9.98;;;1.75;;
65477;SDS011;53678;39.642;22.430;2023-04-25T11:30:22;3.92;;;2.10;;
65477;SDS011;53678;39.642;22.430;2023-04-25T11:32:53;6.82;;;2.33;;
65477;SDS011;53678;39.642;22.430;2023-04-25T11:35:19;7.22;;;2.75;;
65477;SDS011;53678;39.642;22.430;2023-04-25T11:37:50;9.57;;;2.00;;
65477;SDS011;53678;39.642;22.430;2023-04-25T11:40:16;5.20;;;1.95;;
65477;SDS011;53678;39.642;22.430;2023-04-25T11:42:44;5.13;;;2.17;;
65477;SDS011;53678;39.642;22.430;2023-04-25T11:45:13;4.72;;;1.95;;
65477;SDS011;53678;39.642;22.430;2023-04-25T11:47:40;6.15;;;2.17;;
65477;SDS011;53678;39.642;22.430;2023-04-25T11:50:06;4.65;;;1.65;;
65477;SDS011;53678;39.642;22.430;2023-04-25T11:52:37;7.13;;;2.08;;
65477;SDS011;53678;39.642;22.430;2023-04-25T11:55:08;4.93;;;2.00;;
65477;SDS011;53678;39.642;22.430;2023-04-25T11:57:40;7.05;;;2.00;;
65477;SDS011;53678;39.642;22.430;2023-04-25T12:02:41;7.97;;;2.20;;
65477;SDS011;53678;39.642;22.430;2023-04-25T12:05:17;8.10;;;2.58;;
65477;SDS011;53678;39.642;22.430;2023-04-25T12:07:46;8.65;;;2.13;;
65477;SDS011;53678;39.642;22.430;2023-04-25T12:10:13;2.85;;;1.70;;
65477;SDS011;53678;39.642;22.430;2023-04-25T12:12:47;7.35;;;1.75;;
65477;SDS011;53678;39.642;22.430;2023-04-25T12:15:23;4.85;;;2.00;;
65477;SDS011;53678;39.642;22.430;2023-04-25T12:17:52;5.78;;;2.60;;
65477;SDS011;53678;39.642;22.430;2023-04-25T12:20:20;3.83;;;1.90;;
65477;SDS011;53678;39.642;22.430;2023-04-25T12:22:49;5.00;;;2.15;;
65477;SDS011;53678;39.642;22.430;2023-04-25T12:28:21;6.80;;;1.90;;
65477;SDS011;53678;39.642;22.430;2023-04-25T12:33:31;5.78;;;2.10;;
65477;SDS011;53678;39.642;22.430;2023-04-25T12:35:59;5.78;;;2.10;;
65477;SDS011;53678;39.642;22.430;2023-04-25T12:38:26;12.57;;;3.55;;
65477;SDS011;53678;39.642;22.430;2023-04-25T12:40:55;12.65;;;2.25;;
65477;SDS011;53678;39.642;22.430;2023-04-25T12:43:21;7.25;;;2.10;;
65477;SDS011;53678;39.642;22.430;2023-04-25T12:45:49;5.80;;;1.90;;
65477;SDS011;53678;39.642;22.430;2023-04-25T12:48:18;10.05;;;2.55;;
65477;SDS011;53678;39.642;22.430;2023-04-25T12:50:44;6.22;;;2.15;;
65477;SDS011;53678;39.642;22.430;2023-04-25T12:53:14;7.63;;;4.15;;
65477;SDS011;53678;39.642;22.430;2023-04-25T12:55:42;6.35;;;2.20;;
65477;SDS011;53678;39.642;22.430;2023-04-25T12:58:11;4.15;;;2.38;;
65477;SDS011;53678;39.642;22.430;2023-04-25T13:00:38;8.35;;;1.80;;
65477;SDS011;53678;39.642;22.430;2023-04-25T13:03:07;4.57;;;1.70;;
65477;SDS011;53678;39.642;22.430;2023-04-25T13:05:39;8.18;;;2.13;;
65477;SDS011;53678;39.642;22.430;2023-04-25T13:08:12;7.53;;;2.00;;
65477;SDS011;53678;39.642;22.430;2023-04-25T13:10:38;7.40;;;2.35;;
65477;SDS011;53678;39.642;22.430;2023-04-25T13:13:07;10.45;;;2.13;;
65477;SDS011;53678;39.642;22.430;2023-04-25T13:15:34;7.82;;;2.00;;
65477;SDS011;53678;39.642;22.430;2023-04-25T13:18:01;4.93;;;2.13;;
65477;SDS011;53678;39.642;22.430;2023-04-25T13:20:27;7.40;;;2.40;;
65477;SDS011;53678;39.642;22.430;2023-04-25T13:22:53;10.43;;;2.40;;
65477;SDS011;53678;39.642;22.430;2023-04-25T13:25:18;14.45;;;2.75;;
65477;SDS011;53678;39.642;22.430;2023-04-25T13:27:46;5.90;;;2.38;;
65477;SDS011;53678;39.642;22.430;2023-04-25T13:30:13;5.00;;;1.90;;
65477;SDS011;53678;39.642;22.430;2023-04-25T13:32:39;4.55;;;2.03;;
65477;SDS011;53678;39.642;22.430;2023-04-25T13:35:09;6.78;;;2.42;;
65477;SDS011;53678;39.642;22.430;2023-04-25T13:37:36;7.25;;;2.03;;
65477;SDS011;53678;39.642;22.430;2023-04-25T13:40:03;6.22;;;1.95;;
65477;SDS011;53678;39.642;22.430;2023-04-25T13:42:35;6.95;;;2.17;;
65477;SDS011;53678;39.642;22.430;2023-04-25T13:45:02;7.57;;;2.20;;
65477;SDS011;53678;39.642;22.430;2023-04-25T13:47:28;12.43;;;2.33;;
65477;SDS011;53678;39.642;22.430;2023-04-25T13:49:56;10.82;;;2.53;;
65477;SDS011;53678;39.642;22.430;2023-04-25T13:52:27;5.53;;;2.20;;
65477;SDS011;53678;39.642;22.430;2023-04-25T13:54:53;7.75;;;2.10;;
65477;SDS011;53678;39.642;22.430;2023-04-25T13:57:20;6.32;;;2.50;;
65477;SDS011;53678;39.642;22.430;2023-04-25T13:59:46;7.72;;;2.60;;
65477;SDS011;53678;39.642;22.430;2023-04-25T14:02:12;5.63;;;2.20;;
65477;SDS011;53678;39.642;22.430;2023-04-25T14:04:38;8.32;;;2.60;;
65477;SDS011;53678;39.642;22.430;2023-04-25T14:07:04;7.13;;;2.20;;
65477;SDS011;53678;39.642;22.430;2023-04-25T14:09:30;7.45;;;2.13;;
65477;SDS011;53678;39.642;22.430;2023-04-25T14:11:56;8.13;;;2.33;;
65477;SDS011;53678;39.642;22.430;2023-04-25T14:14:22;8.95;;;2.40;;
65477;SDS011;53678;39.642;22.430;2023-04-25T14:16:49;7.22;;;2.25;;
65477;SDS011;53678;39.642;22.430;2023-04-25T14:19:16;5.65;;;2.17;;
65477;SDS011;53678;39.642;22.430;2023-04-25T14:21:43;7.72;;;2.47;;
65477;SDS011;53678;39.642;22.430;2023-04-25T14:24:10;7.78;;;2.35;;
65477;SDS011;53678;39.642;22.430;2023-04-25T14:26:43;9.55;;;2.45;;
65477;SDS011;53678;39.642;22.430;2023-04-25T14:29:21;7.80;;;1.90;;
65477;SDS011;53678;39.642;22.430;2023-04-25T14:31:46;5.93;;;1.92;;
65477;SDS011;53678;39.642;22.430;2023-04-25T14:34:12;8.27;;;2.25;;
65477;SDS011;53678;39.642;22.430;2023-04-25T14:36:39;5.68;;;2.15;;
65477;SDS011;53678;39.642;22.430;2023-04-25T14:39:05;6.70;;;2.40;;
65477;SDS011;53678;39.642;22.430;2023-04-25T14:41:32;6.72;;;2.22;;
65477;SDS011;53678;39.642;22.430;2023-04-25T14:43:59;5.75;;;2.13;;
65477;SDS011;53678;39.642;22.430;2023-04-25T14:46:25;5.38;;;2.05;;
65477;SDS011;53678;39.642;22.430;2023-04-25T14:48:52;8.18;;;2.20;;
65477;SDS011;53678;39.642;22.430;2023-04-25T14:51:18;5.55;;;2.20;;
65477;SDS011;53678;39.642;22.430;2023-04-25T14:53:43;10.43;;;1.80;;
65477;SDS011;53678;39.642;22.430;2023-04-25T14:56:12;5.75;;;1.67;;
65477;SDS011;53678;39.642;22.430;2023-04-25T14:58:39;4.25;;;1.95;;
65477;SDS011;53678;39.642;22.430;2023-04-25T15:01:06;8.15;;;1.75;;
65477;SDS011;53678;39.642;22.430;2023-04-25T15:03:33;4.35;;;1.95;;
65477;SDS011;53678;39.642;22.430;2023-04-25T15:05:59;6.60;;;2.00;;
65477;SDS011;53678;39.642;22.430;2023-04-25T15:08:26;13.15;;;2.20;;